createdAt,value
2019-02-08T00:01:12.442Z,61.62
2019-02-08T00:04:02.292Z,61.61
2019-02-08T00:06:52.272Z,61.64
2019-02-08T00:09:42.315Z,61.56
2019-02-08T00:12:32.408Z,61.61
2019-02-08T00:15:22.706Z,61.61
2019-02-08T00:18:13.400Z,61.67
2019-02-08T00:21:03.893Z,61.73
2019-02-08T00:23:54.072Z,61.71
2019-02-08T00:26:44.171Z,61.88
2019-02-08T00:29:33.938Z,61.97
2019-02-08T00:32:24.067Z,62.00
2019-02-08T00:35:14.711Z,62.04
2019-02-08T00:38:04.814Z,62.14
2019-02-08T00:40:54.660Z,62.19
2019-02-08T00:43:44.273Z,62.34
2019-02-08T00:46:34.229Z,62.50
2019-02-08T00:49:24.429Z,62.47
2019-02-08T00:52:14.367Z,62.48
2019-02-08T00:55:04.649Z,62.60
2019-02-08T00:57:54.465Z,62.50
2019-02-08T01:00:44.674Z,62.58
2019-02-08T01:03:34.694Z,62.74
2019-02-08T01:06:24.899Z,62.75
2019-02-08T01:09:14.907Z,62.67
2019-02-08T01:12:04.960Z,62.64
2019-02-08T01:14:54.617Z,62.75
2019-02-08T01:17:44.608Z,62.72
2019-02-08T01:20:35.117Z,62.75
2019-02-08T01:23:24.844Z,62.73
2019-02-08T01:26:14.667Z,62.81
2019-02-08T01:29:04.428Z,62.88
2019-02-08T01:31:54.313Z,62.84
2019-02-08T01:34:44.539Z,62.80
2019-02-08T01:37:35.002Z,62.86
2019-02-08T01:40:34.238Z,62.82
2019-02-08T01:43:25.599Z,63.00
2019-02-08T01:46:15.239Z,63.10
2019-02-08T01:49:05.147Z,62.99
2019-02-08T01:51:55.128Z,63.00
2019-02-08T01:54:45.133Z,62.88
2019-02-08T01:57:35.328Z,62.92
2019-02-08T02:00:30.360Z,62.86
2019-02-08T02:03:21.254Z,62.93
2019-02-08T02:06:11.296Z,63.09
2019-02-08T02:09:01.562Z,63.02
2019-02-08T02:11:53.029Z,63.07
2019-02-08T02:14:43.333Z,63.02
2019-02-08T02:17:34.182Z,63.28
2019-02-08T02:20:27.328Z,63.47
2019-02-08T02:23:17.883Z,63.55
2019-02-08T02:26:07.869Z,63.58
2019-02-08T02:28:57.950Z,63.63
2019-02-08T02:31:48.175Z,63.54
2019-02-08T02:34:37.886Z,63.48
2019-02-08T02:37:28.119Z,63.56
2019-02-08T02:40:18.948Z,63.65
2019-02-08T02:43:09.821Z,63.74
2019-02-08T02:45:59.881Z,63.84
2019-02-08T02:48:49.679Z,64.07
2019-02-08T02:51:40.019Z,64.39
2019-02-08T02:54:29.581Z,64.19
2019-02-08T02:57:19.377Z,64.32
2019-02-08T03:00:19.131Z,64.47
2019-02-08T03:03:09.678Z,64.47
2019-02-08T03:05:59.541Z,64.37
2019-02-08T03:08:49.715Z,64.28
2019-02-08T03:11:39.526Z,64.25
2019-02-08T03:14:29.359Z,64.18
2019-02-08T03:17:19.143Z,64.14
2019-02-08T03:20:14.375Z,64.05
2019-02-08T03:23:04.393Z,63.97
2019-02-08T03:25:54.733Z,63.96
2019-02-08T03:28:44.319Z,63.90
2019-02-08T03:31:34.099Z,63.95
2019-02-08T03:34:24.148Z,63.91
2019-02-08T03:37:13.970Z,63.84
2019-02-08T03:40:05.903Z,63.72
2019-02-08T03:42:57.708Z,63.67
2019-02-08T03:45:49.465Z,63.72
2019-02-08T03:48:39.170Z,64.20
2019-02-08T03:51:28.861Z,64.38
2019-02-08T03:54:21.311Z,64.59
2019-02-08T03:57:11.223Z,64.64
2019-02-08T04:00:01.390Z,64.50
2019-02-08T04:02:51.670Z,64.61
2019-02-08T04:05:41.827Z,64.54
2019-02-08T04:08:31.728Z,64.57
2019-02-08T04:11:21.554Z,64.52
2019-02-08T04:14:11.696Z,64.42
2019-02-08T04:17:01.429Z,64.50
2019-02-08T04:19:51.656Z,64.43
2019-02-08T04:22:41.638Z,64.27
2019-02-08T04:25:31.185Z,64.53
2019-02-08T04:28:21.350Z,64.36
2019-02-08T04:31:11.093Z,64.38
2019-02-08T04:34:00.884Z,64.31
2019-02-08T04:36:50.688Z,64.33
2019-02-08T04:39:40.396Z,64.21
2019-02-08T04:42:30.264Z,64.08
2019-02-08T04:45:20.852Z,64.09
2019-02-08T04:48:10.941Z,64.04
2019-02-08T04:51:01.270Z,63.96
2019-02-08T04:53:50.845Z,63.95
2019-02-08T04:56:40.875Z,64.00
2019-02-08T04:59:31.052Z,63.90
2019-02-08T05:02:21.164Z,63.86
2019-02-08T05:05:11.238Z,63.77
2019-02-08T05:08:01.234Z,63.72
2019-02-08T05:10:51.558Z,63.62
2019-02-08T05:13:41.580Z,63.61
2019-02-08T05:16:31.327Z,63.51
2019-02-08T05:19:21.063Z,63.42
2019-02-08T05:22:11.081Z,63.38
2019-02-08T05:25:00.955Z,63.37
2019-02-08T05:27:52.598Z,63.35
2019-02-08T05:30:42.946Z,63.28
2019-02-08T05:33:32.950Z,63.27
2019-02-08T05:36:23.074Z,63.37
2019-02-08T05:39:13.206Z,63.36
2019-02-08T05:42:03.484Z,63.41
2019-02-08T05:44:53.145Z,63.36
2019-02-08T05:47:42.701Z,63.25
2019-02-08T05:50:32.776Z,63.28
2019-02-08T05:53:22.796Z,63.33
2019-02-08T05:56:13.036Z,63.42
2019-02-08T05:59:02.941Z,63.36
2019-02-08T06:01:53.305Z,63.42
2019-02-08T06:04:43.601Z,63.45
2019-02-08T06:07:33.371Z,63.56
2019-02-08T06:10:23.361Z,63.56
2019-02-08T06:13:13.349Z,63.53
2019-02-08T06:16:03.558Z,63.55
2019-02-08T06:18:53.421Z,63.51
2019-02-08T06:21:43.462Z,63.57
2019-02-08T06:24:33.576Z,63.56
2019-02-08T06:27:23.506Z,63.46
2019-02-08T06:30:20.158Z,63.49
2019-02-08T06:33:10.201Z,63.53
2019-02-08T06:36:00.512Z,63.55
2019-02-08T06:38:50.695Z,63.51
2019-02-08T06:41:40.762Z,63.58
2019-02-08T06:44:30.881Z,63.55
2019-02-08T06:47:20.373Z,63.47
2019-02-08T06:50:12.556Z,63.50
2019-02-08T06:53:02.566Z,63.48
2019-02-08T06:55:54.016Z,63.41
2019-02-08T06:58:50.227Z,63.49
2019-02-08T07:02:17.198Z,63.64
2019-02-08T07:05:18.835Z,63.75
2019-02-08T07:08:16.784Z,64.04
2019-02-08T07:11:24.354Z,64.07
2019-02-08T07:14:26.365Z,64.02
2019-02-08T07:17:42.040Z,64.15
2019-02-08T07:20:44.641Z,64.07
2019-02-08T07:23:44.353Z,63.96
2019-02-08T07:26:52.441Z,63.55
2019-02-08T07:30:04.327Z,63.05
2019-02-08T07:33:15.943Z,62.89
2019-02-08T07:36:28.127Z,61.77
2019-02-08T07:39:27.049Z,61.08
2019-02-08T07:42:25.098Z,60.60
2019-02-08T07:45:24.538Z,60.24
2019-02-08T07:48:34.149Z,60.05
2019-02-08T07:51:48.746Z,60.00
2019-02-08T07:54:55.606Z,59.29
2019-02-08T07:57:53.563Z,59.12
2019-02-08T08:00:54.490Z,59.10
2019-02-08T08:04:02.112Z,58.69
2019-02-08T08:07:17.345Z,58.39
2019-02-08T08:10:20.503Z,58.73
2019-02-08T08:13:24.278Z,59.09
2019-02-08T08:16:36.703Z,58.88
2019-02-08T08:19:58.044Z,59.09
2019-02-08T08:23:05.722Z,58.70
2019-02-08T08:26:13.247Z,57.43
2019-02-08T08:29:24.307Z,55.33
2019-02-08T08:32:29.118Z,55.00
2019-02-08T08:36:01.883Z,54.04
2019-02-08T08:39:42.042Z,54.14
2019-02-08T08:43:11.707Z,55.15
2019-02-08T08:47:11.892Z,54.86
2019-02-08T08:51:04.749Z,55.11
2019-02-08T08:54:37.364Z,54.79
2019-02-08T08:58:13.063Z,54.81
2019-02-08T09:02:05.730Z,54.82
2019-02-08T09:05:41.216Z,55.59
2019-02-08T09:09:09.600Z,55.32
2019-02-08T09:12:41.468Z,54.64
2019-02-08T09:16:24.506Z,55.12
2019-02-08T09:19:45.194Z,54.84
2019-02-08T09:23:27.663Z,53.68
2019-02-08T09:27:36.262Z,51.20
2019-02-08T09:31:30.434Z,50.52
2019-02-08T09:35:10.702Z,48.75
2019-02-08T09:38:46.531Z,48.67
2019-02-08T09:42:46.264Z,48.01
2019-02-08T09:46:23.717Z,47.25
2019-02-08T09:50:26.596Z,48.11
2019-02-08T09:54:18.352Z,47.99
2019-02-08T09:58:09.662Z,47.77
2019-02-08T10:02:14.626Z,46.69
2019-02-08T10:06:05.378Z,45.70
2019-02-08T10:09:51.195Z,45.87
2019-02-08T10:13:31.288Z,44.96
2019-02-08T10:17:10.553Z,44.84
2019-02-08T10:20:54.496Z,45.19
2019-02-08T10:24:41.281Z,44.46
2019-02-08T10:28:42.608Z,43.29
2019-02-08T10:32:24.137Z,42.86
2019-02-08T10:35:52.583Z,43.37
2019-02-08T10:39:39.087Z,43.38
2019-02-08T10:43:25.298Z,41.63
2019-02-08T10:46:53.679Z,40.93
2019-02-08T10:50:55.518Z,39.52
2019-02-08T10:54:46.886Z,40.89
2019-02-08T10:58:37.498Z,40.90
2019-02-08T11:02:08.722Z,42.46
2019-02-08T11:06:20.293Z,42.54
2019-02-08T11:09:57.315Z,40.40
2019-02-08T11:13:36.437Z,39.47
2019-02-08T11:17:14.237Z,37.56
2019-02-08T11:20:06.837Z,36.00
2019-02-08T11:22:56.633Z,33.62
2019-02-08T11:25:46.591Z,33.53
2019-02-08T11:28:35.702Z,33.16
2019-02-08T11:31:25.574Z,33.07
2019-02-08T11:34:15.849Z,32.01
2019-02-08T11:37:06.730Z,31.00
2019-02-08T11:39:56.489Z,32.19
2019-02-08T11:42:46.392Z,31.54
2019-02-08T11:45:36.531Z,31.54
2019-02-08T11:48:26.810Z,31.58
2019-02-08T11:51:16.747Z,31.58
2019-02-08T11:54:07.293Z,31.21
2019-02-08T11:56:58.360Z,32.93
2019-02-08T11:59:48.117Z,33.24
2019-02-08T12:02:40.562Z,32.93
2019-02-08T12:05:29.593Z,33.64
2019-02-08T12:08:19.645Z,32.25
2019-02-08T12:11:09.867Z,33.64
2019-02-08T12:13:59.842Z,33.01
2019-02-08T12:16:49.925Z,34.48
2019-02-08T12:19:39.610Z,34.32
2019-02-08T12:22:29.670Z,33.39
2019-02-08T12:25:19.276Z,33.50
2019-02-08T12:28:09.423Z,33.98
2019-02-08T12:30:59.437Z,33.88
2019-02-08T12:33:49.177Z,33.78
2019-02-08T12:36:39.860Z,34.19
2019-02-08T12:39:30.109Z,34.20
2019-02-08T12:42:19.618Z,35.17
2019-02-08T12:45:10.137Z,36.49
2019-02-08T12:47:59.883Z,37.16
2019-02-08T12:50:49.807Z,38.15
2019-02-08T12:53:39.530Z,38.88
2019-02-08T12:56:29.302Z,39.98
2019-02-08T12:59:19.152Z,40.57
2019-02-08T13:02:09.364Z,41.05
2019-02-08T13:04:59.060Z,41.86
2019-02-08T13:07:49.014Z,42.60
2019-02-08T13:10:39.196Z,43.20
2019-02-08T13:13:28.987Z,43.66
2019-02-08T13:16:18.955Z,43.90
2019-02-08T13:19:09.695Z,44.35
2019-02-08T13:21:59.804Z,44.36
2019-02-08T13:24:49.744Z,44.48
2019-02-08T13:27:39.719Z,44.85
2019-02-08T13:30:30.134Z,44.99
2019-02-08T13:33:20.237Z,45.40
2019-02-08T13:36:16.022Z,45.55
2019-02-08T13:39:09.327Z,45.43
2019-02-08T13:42:01.237Z,45.77
2019-02-08T13:44:51.348Z,45.83
2019-02-08T13:47:41.276Z,46.10
2019-02-08T13:50:31.236Z,46.13
2019-02-08T13:53:21.060Z,46.55
2019-02-08T13:56:11.499Z,46.48
2019-02-08T13:59:01.104Z,46.52
2019-02-08T14:01:51.321Z,46.25
2019-02-08T14:04:41.441Z,46.68
2019-02-08T14:07:31.510Z,46.65
2019-02-08T14:10:21.771Z,46.68
2019-02-08T14:13:11.302Z,46.82
2019-02-08T14:16:01.024Z,46.98
2019-02-08T14:18:50.865Z,47.07
2019-02-08T14:21:40.571Z,47.07
2019-02-08T14:24:30.677Z,46.87
2019-02-08T14:27:20.867Z,46.78
2019-02-08T14:30:30.802Z,46.79
2019-02-08T14:33:21.133Z,47.01
2019-02-08T14:36:11.055Z,47.32
2019-02-08T14:39:01.258Z,47.62
2019-02-08T14:41:52.733Z,47.74
2019-02-08T14:44:42.830Z,48.10
2019-02-08T14:47:32.882Z,48.29
2019-02-08T14:50:24.829Z,48.41
2019-02-08T14:53:14.915Z,48.42
2019-02-08T14:56:05.492Z,48.46
2019-02-08T14:58:55.306Z,48.65
2019-02-08T15:01:45.481Z,48.55
2019-02-08T15:04:35.633Z,48.62
2019-02-08T15:07:25.518Z,48.49
2019-02-08T15:10:28.688Z,48.82
2019-02-08T15:13:18.470Z,48.76
2019-02-08T15:16:08.322Z,49.25
2019-02-08T15:18:57.896Z,49.08
2019-02-08T15:21:47.928Z,49.35
2019-02-08T15:24:38.570Z,49.34
2019-02-08T15:27:28.871Z,49.41
2019-02-08T15:30:26.015Z,49.78
2019-02-08T15:33:15.819Z,50.07
2019-02-08T15:36:05.878Z,50.08
2019-02-08T15:38:56.138Z,50.21
2019-02-08T15:41:46.509Z,50.34
2019-02-08T15:44:36.245Z,50.38
2019-02-08T15:47:25.827Z,50.35
2019-02-08T15:50:15.881Z,50.48
2019-02-08T15:53:05.375Z,50.68
2019-02-08T15:56:06.735Z,50.83
2019-02-08T15:58:56.523Z,50.97
2019-02-08T16:01:45.985Z,51.00
2019-02-08T16:04:35.436Z,51.07
2019-02-08T16:07:25.318Z,51.27
2019-02-08T16:10:16.291Z,51.57
2019-02-08T16:13:06.611Z,51.59
2019-02-08T16:15:56.842Z,51.79
2019-02-08T16:18:47.445Z,51.87
2019-02-08T16:21:37.691Z,52.04
2019-02-08T16:24:27.895Z,52.12
2019-02-08T16:27:17.641Z,52.47
2019-02-08T16:30:15.066Z,52.41
2019-02-08T16:33:06.327Z,52.61
2019-02-08T16:35:55.769Z,52.51
2019-02-08T16:38:46.240Z,52.43
2019-02-08T16:41:35.725Z,52.56
2019-02-08T16:44:25.908Z,52.67
2019-02-08T16:47:16.540Z,52.80
2019-02-08T16:50:09.757Z,52.54
2019-02-08T16:52:59.569Z,52.71
2019-02-08T16:55:50.004Z,52.94
2019-02-08T16:58:39.972Z,52.75
2019-02-08T17:01:29.803Z,52.78
2019-02-08T17:04:19.346Z,52.91
2019-02-08T17:07:09.005Z,52.96
2019-02-08T17:09:58.691Z,53.09
2019-02-08T17:12:49.069Z,53.12
2019-02-08T17:15:39.475Z,53.10
2019-02-08T17:18:29.198Z,52.95
2019-02-08T17:21:18.705Z,53.15
2019-02-08T17:24:09.128Z,53.25
2019-02-08T17:26:59.873Z,53.37
2019-02-08T17:29:50.030Z,53.35
2019-02-08T17:32:39.817Z,53.11
2019-02-08T17:35:30.358Z,53.34
2019-02-08T17:38:20.004Z,53.46
2019-02-08T17:41:10.117Z,53.41
2019-02-08T17:44:00.212Z,53.47
2019-02-08T17:46:50.307Z,53.40
2019-02-08T17:49:39.959Z,53.58
2019-02-08T17:52:30.155Z,53.68
2019-02-08T17:55:21.958Z,53.55
2019-02-08T17:58:12.131Z,53.68
2019-02-08T18:01:01.707Z,53.88
2019-02-08T18:03:51.715Z,54.03
2019-02-08T18:06:41.721Z,54.12
2019-02-08T18:09:31.582Z,54.49
2019-02-08T18:12:21.323Z,54.80
2019-02-08T18:15:14.600Z,54.79
2019-02-08T18:18:05.014Z,54.91
2019-02-08T18:21:02.473Z,55.15
2019-02-08T18:23:52.443Z,55.49
2019-02-08T18:26:42.517Z,55.28
2019-02-08T18:29:32.828Z,55.78
2019-02-08T18:32:22.699Z,55.79
2019-02-08T18:35:13.367Z,55.93
2019-02-08T18:38:04.995Z,56.09
2019-02-08T18:40:55.306Z,56.04
2019-02-08T18:43:45.114Z,56.33
2019-02-08T18:46:35.465Z,56.34
2019-02-08T18:49:25.408Z,56.42
2019-02-08T18:52:15.155Z,56.47
2019-02-08T18:55:05.419Z,56.27
2019-02-08T18:57:56.457Z,56.29
2019-02-08T19:00:49.095Z,56.13
2019-02-08T19:03:38.846Z,56.23
2019-02-08T19:06:28.713Z,56.23
2019-02-08T19:09:19.037Z,56.48
2019-02-08T19:12:08.578Z,56.41
2019-02-08T19:14:58.299Z,56.33
2019-02-08T19:17:48.408Z,56.49
2019-02-08T19:20:38.382Z,56.55
2019-02-08T19:23:29.945Z,56.78
2019-02-08T19:26:19.519Z,56.87
2019-02-08T19:29:09.506Z,56.88
2019-02-08T19:31:59.842Z,56.79
2019-02-08T19:34:50.623Z,56.92
2019-02-08T19:37:40.537Z,56.91
2019-02-08T19:40:33.229Z,56.83
2019-02-08T19:43:23.145Z,56.72
2019-02-08T19:46:13.038Z,56.76
2019-02-08T19:49:02.933Z,56.65
2019-02-08T19:51:52.469Z,56.64
2019-02-08T19:54:43.550Z,56.61
2019-02-08T19:57:33.200Z,56.79
2019-02-08T20:00:25.025Z,56.68
2019-02-08T20:03:14.485Z,56.71
2019-02-08T20:06:04.362Z,56.80
2019-02-08T20:08:54.712Z,56.60
2019-02-08T20:11:45.458Z,56.39
2019-02-08T20:14:35.180Z,56.60
2019-02-08T20:17:24.626Z,56.40
2019-02-08T20:20:15.144Z,56.47
2019-02-08T20:23:06.120Z,56.40
2019-02-08T20:25:55.238Z,56.50
2019-02-08T20:28:45.282Z,56.42
2019-02-08T20:31:36.385Z,56.43
2019-02-08T20:34:26.137Z,56.42
2019-02-08T20:37:15.695Z,56.36
2019-02-08T20:40:08.907Z,56.31
2019-02-08T20:42:58.951Z,56.19
2019-02-08T20:45:48.386Z,56.26
2019-02-08T20:48:38.896Z,56.18
2019-02-08T20:51:29.115Z,56.18
2019-02-08T20:54:18.585Z,56.06
2019-02-08T20:57:08.965Z,56.26
2019-02-08T20:59:58.733Z,56.13
2019-02-08T21:02:49.161Z,56.02
2019-02-08T21:05:38.661Z,55.97
2019-02-08T21:08:28.922Z,55.87
2019-02-08T21:11:19.196Z,55.94
2019-02-08T21:14:09.133Z,56.05
2019-02-08T21:16:59.056Z,55.97
2019-02-08T21:19:49.212Z,55.97
2019-02-08T21:22:38.809Z,55.96
2019-02-08T21:25:29.720Z,55.92
2019-02-08T21:28:19.267Z,55.96
2019-02-08T21:31:09.343Z,55.83
2019-02-08T21:33:58.753Z,55.59
2019-02-08T21:36:48.393Z,55.49
2019-02-08T21:39:38.345Z,55.50
2019-02-08T21:42:28.482Z,55.32
2019-02-08T21:45:21.090Z,55.24
2019-02-08T21:48:12.090Z,55.25
2019-02-08T21:51:02.387Z,55.32
2019-02-08T21:53:52.245Z,55.06
2019-02-08T21:56:42.145Z,55.03
2019-02-08T21:59:31.910Z,55.22
2019-02-08T22:02:21.314Z,55.01
2019-02-08T22:05:11.463Z,55.00
2019-02-08T22:08:01.565Z,54.99
2019-02-08T22:10:51.502Z,54.77
2019-02-08T22:13:41.716Z,54.69
2019-02-08T22:16:32.067Z,54.55
2019-02-08T22:19:21.746Z,54.49
2019-02-08T22:22:11.227Z,54.39
2019-02-08T22:25:01.314Z,54.50
2019-02-08T22:27:51.523Z,54.11
2019-02-08T22:30:41.986Z,54.37
2019-02-08T22:33:31.885Z,54.24
2019-02-08T22:36:21.695Z,54.19
2019-02-08T22:39:12.164Z,53.92
2019-02-08T22:42:01.980Z,53.46
2019-02-08T22:44:51.486Z,53.84
2019-02-08T22:47:41.774Z,53.89
2019-02-08T22:50:32.054Z,53.79
2019-02-08T22:53:21.996Z,53.20
2019-02-08T22:56:11.717Z,53.21
2019-02-08T22:59:01.648Z,53.25
2019-02-08T23:01:53.179Z,53.38
2019-02-08T23:04:43.190Z,53.16
2019-02-08T23:07:33.310Z,53.05
2019-02-08T23:10:23.321Z,53.13
2019-02-08T23:13:13.198Z,52.46
2019-02-08T23:16:03.417Z,52.47
2019-02-08T23:18:53.232Z,52.64
2019-02-08T23:21:43.616Z,52.21
2019-02-08T23:24:33.109Z,52.53
2019-02-08T23:27:22.736Z,52.79
2019-02-08T23:30:13.970Z,52.70
2019-02-08T23:33:05.189Z,52.69
2019-02-08T23:35:54.868Z,52.72
2019-02-08T23:38:44.663Z,52.44
2019-02-08T23:41:36.151Z,52.42
2019-02-08T23:44:25.891Z,52.29
2019-02-08T23:47:15.787Z,52.35
2019-02-08T23:50:07.159Z,52.16
2019-02-08T23:52:56.774Z,52.32
2019-02-08T23:55:47.229Z,52.52
2019-02-08T23:58:37.418Z,52.24
